METAR Formatted Surface Weather Observation
Issued by NWS

Home | Current Version | Previous Version | Text Only | Print | Product List | Glossary On
Versions: 1 2 3 4 5 6 7 8 9 10 11 12 13 14 15
000
SAUS45 KFGZ 301557 COR
MTRRQE
METAR KRQE 301553Z AUTO 00000KT 10SM CLR 25/10 A3031 RMK AO2 SLP126
T02500100 TSNO



USA.gov is the U.S. government's official web portal to all federal, state and local government web resources and services.